sensor_id;sensor_type;location;lat;lon;timestamp;pressure;altitude;pressure_sealevel;temperature;humidity
48848;BME280;36611;51.638;5.784;2022-10-22T00:02:22;100809.22;;;17.43;61.79
48848;BME280;36611;51.638;5.784;2022-10-22T00:04:49;100814.97;;;17.40;62.05
48848;BME280;36611;51.638;5.784;2022-10-22T00:07:17;100812.72;;;17.35;61.98
48848;BME280;36611;51.638;5.784;2022-10-22T00:09:44;100820.00;;;17.35;62.48
48848;BME280;36611;51.638;5.784;2022-10-22T00:12:13;100820.16;;;17.33;62.11
48848;BME280;36611;51.638;5.784;2022-10-22T00:15:05;100815.03;;;17.30;62.40
48848;BME280;36611;51.638;5.784;2022-10-22T00:17:32;100813.31;;;17.29;62.29
48848;BME280;36611;51.638;5.784;2022-10-22T00:19:58;100808.91;;;17.28;62.58
48848;BME280;36611;51.638;5.784;2022-10-22T00:22:25;100806.34;;;17.27;62.88
48848;BME280;36611;51.638;5.784;2022-10-22T00:24:53;100804.63;;;17.26;62.79
48848;BME280;36611;51.638;5.784;2022-10-22T00:27:20;100812.78;;;17.26;62.63
48848;BME280;36611;51.638;5.784;2022-10-22T00:29:46;100809.06;;;17.27;62.58
48848;BME280;36611;51.638;5.784;2022-10-22T00:32:13;100806.34;;;17.27;62.71
48848;BME280;36611;51.638;5.784;2022-10-22T00:34:42;100812.63;;;17.27;63.12
48848;BME280;36611;51.638;5.784;2022-10-22T00:37:09;100817.91;;;17.29;63.01
48848;BME280;36611;51.638;5.784;2022-10-22T00:39:35;100815.19;;;17.29;63.03
48848;BME280;36611;51.638;5.784;2022-10-22T00:42:02;100807.91;;;17.29;63.12
48848;BME280;36611;51.638;5.784;2022-10-22T00:50:08;100808.28;;;17.34;62.85
48848;BME280;36611;51.638;5.784;2022-10-22T00:52:36;100811.84;;;17.35;63.27
48848;BME280;36611;51.638;5.784;2022-10-22T00:55:03;100810.69;;;17.37;63.07
48848;BME280;36611;51.638;5.784;2022-10-22T00:57:30;100805.41;;;17.36;63.11
48848;BME280;36611;51.638;5.784;2022-10-22T00:59:57;100811.00;;;17.34;62.89
48848;BME280;36611;51.638;5.784;2022-10-22T01:02:23;100823.72;;;17.34;63.16
48848;BME280;36611;51.638;5.784;2022-10-22T01:04:52;100816.91;;;17.30;62.86
48848;BME280;36611;51.638;5.784;2022-10-22T01:07:20;100820.78;;;17.27;62.88
48848;BME280;36611;51.638;5.784;2022-10-22T01:12:22;100821.53;;;17.20;62.97
48848;BME280;36611;51.638;5.784;2022-10-22T01:18:08;100810.66;;;17.20;63.46
48848;BME280;36611;51.638;5.784;2022-10-22T01:20:57;100807.81;;;17.21;63.42
48848;BME280;36611;51.638;5.784;2022-10-22T01:29:24;100813.94;;;17.23;63.50
48848;BME280;36611;51.638;5.784;2022-10-22T01:32:02;100819.66;;;17.20;63.28
48848;BME280;36611;51.638;5.784;2022-10-22T01:34:31;100816.09;;;17.20;63.40
48848;BME280;36611;51.638;5.784;2022-10-22T01:36:59;100814.25;;;17.20;63.37
48848;BME280;36611;51.638;5.784;2022-10-22T01:39:28;100818.19;;;17.26;63.47
48848;BME280;36611;51.638;5.784;2022-10-22T01:41:56;100814.34;;;17.28;63.63
48848;BME280;36611;51.638;5.784;2022-10-22T01:44:33;100800.75;;;17.28;63.61
48848;BME280;36611;51.638;5.784;2022-10-22T01:55:55;100810.38;;;17.23;63.66
48848;BME280;36611;51.638;5.784;2022-10-22T01:58:43;100809.38;;;17.24;63.71
48848;BME280;36611;51.638;5.784;2022-10-22T02:01:22;100805.78;;;17.23;63.63
48848;BME280;36611;51.638;5.784;2022-10-22T02:04:19;100795.09;;;17.22;63.81
48848;BME280;36611;51.638;5.784;2022-10-22T02:06:47;100805.63;;;17.25;63.41
48848;BME280;36611;51.638;5.784;2022-10-22T02:09:18;100799.91;;;17.28;63.41
48848;BME280;36611;51.638;5.784;2022-10-22T02:11:48;100791.06;;;17.26;63.51
48848;BME280;36611;51.638;5.784;2022-10-22T02:14:19;100790.38;;;17.24;63.58
48848;BME280;36611;51.638;5.784;2022-10-22T02:16:47;100804.94;;;17.23;63.38
48848;BME280;36611;51.638;5.784;2022-10-22T02:21:48;100792.84;;;17.17;63.61
48848;BME280;36611;51.638;5.784;2022-10-22T02:24:15;100791.97;;;17.17;63.35
48848;BME280;36611;51.638;5.784;2022-10-22T02:27:07;100795.00;;;17.13;63.66
48848;BME280;36611;51.638;5.784;2022-10-22T02:30:00;100806.88;;;17.12;63.31
48848;BME280;36611;51.638;5.784;2022-10-22T02:32:39;100802.59;;;17.10;63.47
48848;BME280;36611;51.638;5.784;2022-10-22T02:35:10;100808.44;;;17.05;63.58
48848;BME280;36611;51.638;5.784;2022-10-22T02:37:39;100803.16;;;17.04;63.38
48848;BME280;36611;51.638;5.784;2022-10-22T02:40:07;100801.75;;;17.00;63.66
48848;BME280;36611;51.638;5.784;2022-10-22T02:42:35;100800.91;;;16.99;63.66
48848;BME280;36611;51.638;5.784;2022-10-22T02:45:04;100794.63;;;16.99;63.70
48848;BME280;36611;51.638;5.784;2022-10-22T02:47:31;100801.91;;;16.98;63.38
48848;BME280;36611;51.638;5.784;2022-10-22T02:49:57;100799.50;;;16.95;63.70
48848;BME280;36611;51.638;5.784;2022-10-22T02:52:24;100800.50;;;16.94;63.80
48848;BME280;36611;51.638;5.784;2022-10-22T02:54:52;100800.81;;;16.91;63.80
48848;BME280;36611;51.638;5.784;2022-10-22T02:57:18;100800.09;;;16.89;63.89
48848;BME280;36611;51.638;5.784;2022-10-22T02:59:46;100806.25;;;16.91;63.60
48848;BME280;36611;51.638;5.784;2022-10-22T03:02:12;100803.53;;;16.91;63.77
48848;BME280;36611;51.638;5.784;2022-10-22T03:04:43;100798.81;;;16.93;63.72
48848;BME280;36611;51.638;5.784;2022-10-22T03:07:10;100804.06;;;16.95;63.97
48848;BME280;36611;51.638;5.784;2022-10-22T03:09:37;100808.09;;;16.91;63.60
48848;BME280;36611;51.638;5.784;2022-10-22T03:12:03;100801.28;;;16.87;63.83
48848;BME280;36611;51.638;5.784;2022-10-22T03:14:31;100811.56;;;16.83;63.94
48848;BME280;36611;51.638;5.784;2022-10-22T03:16:58;100815.44;;;16.80;63.97
48848;BME280;36611;51.638;5.784;2022-10-22T03:19:24;100806.59;;;16.78;63.89
48848;BME280;36611;51.638;5.784;2022-10-22T03:21:57;100813.03;;;16.77;63.58
48848;BME280;36611;51.638;5.784;2022-10-22T03:24:30;100805.88;;;16.76;63.74
48848;BME280;36611;51.638;5.784;2022-10-22T03:26:59;100813.16;;;16.76;63.78
48848;BME280;36611;51.638;5.784;2022-10-22T03:29:26;100824.03;;;16.76;63.62
48848;BME280;36611;51.638;5.784;2022-10-22T03:31:53;100825.03;;;16.75;63.80
48848;BME280;36611;51.638;5.784;2022-10-22T03:34:21;100833.31;;;16.73;63.86
48848;BME280;36611;51.638;5.784;2022-10-22T03:36:48;100833.47;;;16.72;63.81
48848;BME280;36611;51.638;5.784;2022-10-22T03:39:16;100834.47;;;16.71;64.01
48848;BME280;36611;51.638;5.784;2022-10-22T03:41:45;100835.47;;;16.70;63.89
48848;BME280;36611;51.638;5.784;2022-10-22T03:44:12;100835.59;;;16.68;63.83
48848;BME280;36611;51.638;5.784;2022-10-22T03:46:41;100829.34;;;16.68;63.63
48848;BME280;36611;51.638;5.784;2022-10-22T03:49:07;100833.31;;;16.64;63.86
48848;BME280;36611;51.638;5.784;2022-10-22T03:51:34;100844.16;;;16.64;64.01
48848;BME280;36611;51.638;5.784;2022-10-22T03:54:05;100841.59;;;16.62;63.73
48848;BME280;36611;51.638;5.784;2022-10-22T03:56:32;100846.16;;;16.62;63.68
48848;BME280;36611;51.638;5.784;2022-10-22T03:59:00;100848.03;;;16.61;64.16
48848;BME280;36611;51.638;5.784;2022-10-22T04:01:28;100856.31;;;16.60;64.02
48848;BME280;36611;51.638;5.784;2022-10-22T04:03:59;100854.59;;;16.59;63.94
48848;BME280;36611;51.638;5.784;2022-10-22T04:06:28;100858.16;;;16.59;63.97
48848;BME280;36611;51.638;5.784;2022-10-22T04:08:54;100862.72;;;16.59;64.06
48848;BME280;36611;51.638;5.784;2022-10-22T04:11:21;100864.72;;;16.57;63.92
48848;BME280;36611;51.638;5.784;2022-10-22T04:13:48;100861.16;;;16.56;64.34
48848;BME280;36611;51.638;5.784;2022-10-22T04:16:20;100867.44;;;16.57;64.19
48848;BME280;36611;51.638;5.784;2022-10-22T04:18:49;100863.88;;;16.56;63.99
48848;BME280;36611;51.638;5.784;2022-10-22T04:21:18;100867.28;;;16.58;64.15
48848;BME280;36611;51.638;5.784;2022-10-22T04:23:46;100870.00;;;16.58;63.91
48848;BME280;36611;51.638;5.784;2022-10-22T04:26:14;100871.88;;;16.58;63.90
48848;BME280;36611;51.638;5.784;2022-10-22T04:28:41;100869.84;;;16.60;64.16
48848;BME280;36611;51.638;5.784;2022-10-22T04:31:13;100873.28;;;16.62;64.38
48848;BME280;36611;51.638;5.784;2022-10-22T04:33:43;100875.00;;;16.63;64.02
48848;BME280;36611;51.638;5.784;2022-10-22T04:36:12;100879.41;;;16.64;64.27
48848;BME280;36611;51.638;5.784;2022-10-22T04:38:40;100872.13;;;16.64;64.38
48848;BME280;36611;51.638;5.784;2022-10-22T04:41:11;100875.69;;;16.65;64.43
48848;BME280;36611;51.638;5.784;2022-10-22T04:43:39;100867.56;;;16.65;64.23
48848;BME280;36611;51.638;5.784;2022-10-22T04:46:07;100873.97;;;16.64;64.61
48848;BME280;36611;51.638;5.784;2022-10-22T04:48:35;100871.28;;;16.64;64.47
48848;BME280;36611;51.638;5.784;2022-10-22T04:51:03;100873.97;;;16.64;64.17
48848;BME280;36611;51.638;5.784;2022-10-22T04:53:29;100872.13;;;16.64;64.41
48848;BME280;36611;51.638;5.784;2022-10-22T04:56:08;100873.97;;;16.64;64.51
48848;BME280;36611;51.638;5.784;2022-10-22T04:58:34;100876.69;;;16.64;64.25
48848;BME280;36611;51.638;5.784;2022-10-22T05:01:12;100873.97;;;16.64;64.65
48848;BME280;36611;51.638;5.784;2022-10-22T05:03:39;100884.97;;;16.62;64.27
48848;BME280;36611;51.638;5.784;2022-10-22T05:06:07;100890.53;;;16.61;64.41
48848;BME280;36611;51.638;5.784;2022-10-22T05:08:34;100886.13;;;16.60;64.13
48848;BME280;36611;51.638;5.784;2022-10-22T05:11:00;100890.69;;;16.59;64.32
48848;BME280;36611;51.638;5.784;2022-10-22T05:13:35;100891.69;;;16.58;64.15
48848;BME280;36611;51.638;5.784;2022-10-22T05:16:01;100887.13;;;16.59;64.35
48848;BME280;36611;51.638;5.784;2022-10-22T05:18:28;100891.00;;;16.56;64.50
48848;BME280;36611;51.638;5.784;2022-10-22T05:20:54;100890.13;;;16.56;64.14
48848;BME280;36611;51.638;5.784;2022-10-22T05:23:21;100886.41;;;16.57;64.38
48848;BME280;36611;51.638;5.784;2022-10-22T05:25:48;100886.28;;;16.58;64.31
48848;BME280;36611;51.638;5.784;2022-10-22T05:28:14;100888.97;;;16.58;64.47
48848;BME280;36611;51.638;5.784;2022-10-22T05:30:41;100887.13;;;16.59;64.27
48848;BME280;36611;51.638;5.784;2022-10-22T05:33:07;100889.84;;;16.59;64.47
48848;BME280;36611;51.638;5.784;2022-10-22T05:35:38;100892.56;;;16.59;64.74
48848;BME280;36611;51.638;5.784;2022-10-22T05:38:05;100895.25;;;16.59;64.55
48848;BME280;36611;51.638;5.784;2022-10-22T05:40:31;100893.25;;;16.61;64.68
48848;BME280;36611;51.638;5.784;2022-10-22T05:42:58;100895.81;;;16.62;64.65
48848;BME280;36611;51.638;5.784;2022-10-22T05:45:25;100901.09;;;16.64;64.61
48848;BME280;36611;51.638;5.784;2022-10-22T05:47:52;100899.13;;;16.66;64.89
48848;BME280;36611;51.638;5.784;2022-10-22T05:50:18;100904.25;;;16.69;64.94
48848;BME280;36611;51.638;5.784;2022-10-22T05:52:45;100907.69;;;16.71;65.05
48848;BME280;36611;51.638;5.784;2022-10-22T05:55:12;100911.94;;;16.73;65.17
48848;BME280;36611;51.638;5.784;2022-10-22T05:57:39;100912.50;;;16.77;64.96
48848;BME280;36611;51.638;5.784;2022-10-22T06:00:06;100912.22;;;16.80;65.16
48848;BME280;36611;51.638;5.784;2022-10-22T06:02:38;100922.78;;;16.83;64.90
48848;BME280;36611;51.638;5.784;2022-10-22T06:05:08;100925.19;;;16.86;64.85
48848;BME280;36611;51.638;5.784;2022-10-22T06:07:34;100933.03;;;16.89;64.84
48848;BME280;36611;51.638;5.784;2022-10-22T06:10:01;100927.47;;;16.91;64.90
48848;BME280;36611;51.638;5.784;2022-10-22T06:12:28;100930.03;;;16.92;64.85
48848;BME280;36611;51.638;5.784;2022-10-22T06:14:56;100937.16;;;16.93;64.89
48848;BME280;36611;51.638;5.784;2022-10-22T06:17:22;100938.88;;;16.94;64.97
48848;BME280;36611;51.638;5.784;2022-10-22T06:19:49;100935.16;;;16.95;64.89
48848;BME280;36611;51.638;5.784;2022-10-22T06:22:15;100941.44;;;16.96;64.65
48848;BME280;36611;51.638;5.784;2022-10-22T06:24:43;100954.84;;;16.97;64.89
48848;BME280;36611;51.638;5.784;2022-10-22T06:27:10;100943.28;;;16.95;64.85
48848;BME280;36611;51.638;5.784;2022-10-22T06:29:37;100948.72;;;16.95;64.86
48848;BME280;36611;51.638;5.784;2022-10-22T06:32:03;100947.72;;;16.96;64.96
48848;BME280;36611;51.638;5.784;2022-10-22T06:34:30;100956.56;;;16.98;65.05
48848;BME280;36611;51.638;5.784;2022-10-22T06:36:56;100962.84;;;16.99;65.11
48848;BME280;36611;51.638;5.784;2022-10-22T06:39:23;100968.13;;;17.00;64.54
48848;BME280;36611;51.638;5.784;2022-10-22T06:41:50;100972.53;;;17.01;64.82
48848;BME280;36611;51.638;5.784;2022-10-22T06:44:20;100976.25;;;17.00;64.80
48848;BME280;36611;51.638;5.784;2022-10-22T06:46:51;100977.97;;;17.01;65.06
48848;BME280;36611;51.638;5.784;2022-10-22T06:49:19;100986.81;;;17.03;64.94
48848;BME280;36611;51.638;5.784;2022-10-22T06:51:49;100989.53;;;17.03;64.66
48848;BME280;36611;51.638;5.784;2022-10-22T06:54:20;100993.97;;;17.04;64.52
48848;BME280;36611;51.638;5.784;2022-10-22T06:56:48;100996.66;;;17.04;64.96
48848;BME280;36611;51.638;5.784;2022-10-22T06:59:15;101002.09;;;17.04;64.85
48848;BME280;36611;51.638;5.784;2022-10-22T07:01:41;100999.22;;;17.06;64.70
48848;BME280;36611;51.638;5.784;2022-10-22T07:04:10;101011.66;;;17.08;65.07
48848;BME280;36611;51.638;5.784;2022-10-22T07:06:37;101015.09;;;17.10;64.78
48848;BME280;36611;51.638;5.784;2022-10-22T07:09:03;101018.53;;;17.12;65.06
48848;BME280;36611;51.638;5.784;2022-10-22T07:11:38;101019.09;;;17.16;65.03
48848;BME280;36611;51.638;5.784;2022-10-22T07:14:05;101025.09;;;17.20;65.14
48848;BME280;36611;51.638;5.784;2022-10-22T07:16:41;101016.50;;;17.24;65.42
48848;BME280;36611;51.638;5.784;2022-10-22T07:19:08;101019.91;;;17.26;65.31
48848;BME280;36611;51.638;5.784;2022-10-22T07:21:35;101024.91;;;17.31;65.44
48848;BME280;36611;51.638;5.784;2022-10-22T07:24:03;101029.03;;;17.35;65.39
48848;BME280;36611;51.638;5.784;2022-10-22T07:26:30;101032.16;;;17.40;65.48
48848;BME280;36611;51.638;5.784;2022-10-22T07:28:59;101042.72;;;17.43;65.45
48848;BME280;36611;51.638;5.784;2022-10-22T07:31:26;101045.13;;;17.46;65.10
48848;BME280;36611;51.638;5.784;2022-10-22T07:33:52;101046.56;;;17.50;65.03
48848;BME280;36611;51.638;5.784;2022-10-22T07:36:19;101049.97;;;17.52;65.45
48848;BME280;36611;51.638;5.784;2022-10-22T07:38:47;101053.25;;;17.56;65.41
48848;BME280;36611;51.638;5.784;2022-10-22T07:41:15;101053.94;;;17.58;65.31
48848;BME280;36611;51.638;5.784;2022-10-22T07:43:42;101055.38;;;17.62;64.97
48848;BME280;36611;51.638;5.784;2022-10-22T07:46:12;101061.34;;;17.65;65.43
48848;BME280;36611;51.638;5.784;2022-10-22T07:48:39;101062.66;;;17.71;65.30
48848;BME280;36611;51.638;5.784;2022-10-22T07:51:05;101062.19;;;17.75;65.16
48848;BME280;36611;51.638;5.784;2022-10-22T07:53:32;101070.03;;;17.78;65.05
48848;BME280;36611;51.638;5.784;2022-10-22T07:56:00;101075.19;;;17.82;64.97
48848;BME280;36611;51.638;5.784;2022-10-22T07:58:27;101074.06;;;17.84;64.96
48848;BME280;36611;51.638;5.784;2022-10-22T08:00:54;101072.19;;;17.85;64.71
48848;BME280;36611;51.638;5.784;2022-10-22T08:03:21;101078.47;;;17.85;65.08
48848;BME280;36611;51.638;5.784;2022-10-22T08:05:50;101082.06;;;17.86;64.75
48848;BME280;36611;51.638;5.784;2022-10-22T08:08:18;101082.59;;;17.89;64.89
48848;BME280;36611;51.638;5.784;2022-10-22T08:10:46;101076.72;;;17.94;64.51
48848;BME280;36611;51.638;5.784;2022-10-22T08:13:14;101080.69;;;17.99;65.11
48848;BME280;36611;51.638;5.784;2022-10-22T08:15:42;101085.53;;;18.05;65.35
48848;BME280;36611;51.638;5.784;2022-10-22T08:18:13;101089.34;;;18.13;65.14
48848;BME280;36611;51.638;5.784;2022-10-22T08:20:40;101091.16;;;18.22;65.32
48848;BME280;36611;51.638;5.784;2022-10-22T08:23:07;101092.66;;;18.34;65.76
48848;BME280;36611;51.638;5.784;2022-10-22T08:25:34;101092.28;;;18.47;65.66
48848;BME280;36611;51.638;5.784;2022-10-22T08:28:00;101088.47;;;18.57;65.39
48848;BME280;36611;51.638;5.784;2022-10-22T08:30:27;101096.16;;;18.71;65.24
48848;BME280;36611;51.638;5.784;2022-10-22T08:32:55;101105.78;;;18.84;65.27
48848;BME280;36611;51.638;5.784;2022-10-22T08:35:22;101094.81;;;18.93;64.91
48848;BME280;36611;51.638;5.784;2022-10-22T08:37:48;101101.88;;;19.04;64.67
48848;BME280;36611;51.638;5.784;2022-10-22T08:40:23;101096.34;;;19.14;64.48
48848;BME280;36611;51.638;5.784;2022-10-22T08:43:05;101104.25;;;19.25;64.52
48848;BME280;36611;51.638;5.784;2022-10-22T08:48:38;101116.22;;;19.50;64.16
48848;BME280;36611;51.638;5.784;2022-10-22T08:51:16;101116.50;;;19.64;64.14
48848;BME280;36611;51.638;5.784;2022-10-22T08:53:52;101117.94;;;19.77;63.94
48848;BME280;36611;51.638;5.784;2022-10-22T08:56:37;101131.81;;;19.91;63.78
48848;BME280;36611;51.638;5.784;2022-10-22T08:59:25;101133.72;;;19.99;63.48
48848;BME280;36611;51.638;5.784;2022-10-22T09:01:53;101125.59;;;20.07;63.30
48848;BME280;36611;51.638;5.784;2022-10-22T09:04:30;101129.88;;;20.10;62.92
48848;BME280;36611;51.638;5.784;2022-10-22T09:06:58;101146.06;;;20.11;62.66
48848;BME280;36611;51.638;5.784;2022-10-22T09:09:29;101149.50;;;20.13;62.83
48848;BME280;36611;51.638;5.784;2022-10-22T09:11:58;101154.63;;;20.16;62.40
48848;BME280;36611;51.638;5.784;2022-10-22T09:14:29;101145.25;;;20.19;62.22
48848;BME280;36611;51.638;5.784;2022-10-22T09:17:32;101158.19;;;20.17;62.40
48848;BME280;36611;51.638;5.784;2022-10-22T09:22:57;101153.59;;;20.17;61.94
48848;BME280;36611;51.638;5.784;2022-10-22T09:25:31;101157.66;;;20.13;62.03
48848;BME280;36611;51.638;5.784;2022-10-22T09:27:58;101157.66;;;20.13;61.80
48848;BME280;36611;51.638;5.784;2022-10-22T09:30:33;101165.16;;;20.11;61.62
48848;BME280;36611;51.638;5.784;2022-10-22T09:33:05;101158.84;;;20.11;61.55
48848;BME280;36611;51.638;5.784;2022-10-22T09:35:39;101169.59;;;20.12;61.71
48848;BME280;36611;51.638;5.784;2022-10-22T09:38:12;101180.84;;;20.09;61.40
48848;BME280;36611;51.638;5.784;2022-10-22T09:40:45;101172.81;;;20.08;61.41
48848;BME280;36611;51.638;5.784;2022-10-22T09:43:13;101182.00;;;20.07;61.53
48848;BME280;36611;51.638;5.784;2022-10-22T09:45:45;101187.31;;;20.08;61.57
48848;BME280;36611;51.638;5.784;2022-10-22T09:48:27;101185.59;;;20.07;61.48
48848;BME280;36611;51.638;5.784;2022-10-22T09:51:05;101190.03;;;20.08;61.82
48848;BME280;36611;51.638;5.784;2022-10-22T09:53:37;101195.47;;;20.08;61.29
48848;BME280;36611;51.638;5.784;2022-10-22T09:56:17;101192.91;;;20.07;61.40
48848;BME280;36611;51.638;5.784;2022-10-22T09:58:48;101197.66;;;20.05;61.45
48848;BME280;36611;51.638;5.784;2022-10-22T10:01:25;101200.69;;;20.02;61.44
48848;BME280;36611;51.638;5.784;2022-10-22T10:03:52;101208.03;;;20.01;61.08
48848;BME280;36611;51.638;5.784;2022-10-22T10:06:21;101211.59;;;20.02;61.01
48848;BME280;36611;51.638;5.784;2022-10-22T10:08:48;101208.56;;;20.05;61.26
48848;BME280;36611;51.638;5.784;2022-10-22T10:14:14;101226.16;;;20.10;61.50
48848;BME280;36611;51.638;5.784;2022-10-22T10:25:39;101238.56;;;20.30;61.46
48848;BME280;36611;51.638;5.784;2022-10-22T10:37:00;101245.81;;;20.48;61.23
48848;BME280;36611;51.638;5.784;2022-10-22T10:42:35;101253.53;;;20.52;60.71
48848;BME280;36611;51.638;5.784;2022-10-22T10:48:24;101254.91;;;20.56;60.79
48848;BME280;36611;51.638;5.784;2022-10-22T10:59:46;101252.72;;;20.68;60.85
48848;BME280;36611;51.638;5.784;2022-10-22T11:05:29;101255.31;;;20.78;60.37
48848;BME280;36611;51.638;5.784;2022-10-22T11:08:19;101258.81;;;20.88;60.57
48848;BME280;36611;51.638;5.784;2022-10-22T11:10:47;101253.19;;;20.98;60.67
48848;BME280;36611;51.638;5.784;2022-10-22T11:16:55;101258.38;;;21.17;60.31
48848;BME280;36611;51.638;5.784;2022-10-22T11:19:04;101258.06;;;21.28;60.07
48848;BME280;36611;51.638;5.784;2022-10-22T11:21:39;101257.75;;;21.39;59.71
48848;BME280;36611;51.638;5.784;2022-10-22T11:27:24;101264.28;;;21.63;59.58
48848;BME280;36611;51.638;5.784;2022-10-22T11:30:01;101266.84;;;21.72;59.22
48848;BME280;36611;51.638;5.784;2022-10-22T11:32:28;101264.28;;;21.79;58.96
48848;BME280;36611;51.638;5.784;2022-10-22T11:35:02;101252.13;;;21.89;59.00
48848;BME280;36611;51.638;5.784;2022-10-22T11:37:32;101260.81;;;22.01;58.80
48848;BME280;36611;51.638;5.784;2022-10-22T11:40:16;101258.44;;;22.14;58.76
48848;BME280;36611;51.638;5.784;2022-10-22T12:00:54;101256.81;;;22.52;57.24
48848;BME280;36611;51.638;5.784;2022-10-22T12:08:45;101246.47;;;22.71;56.76
48848;BME280;36611;51.638;5.784;2022-10-22T12:11:45;101247.63;;;22.76;56.53
48848;BME280;36611;51.638;5.784;2022-10-22T12:14:25;101250.19;;;22.86;56.35
48848;BME280;36611;51.638;5.784;2022-10-22T12:19:41;101249.28;;;22.94;55.94
48848;BME280;36611;51.638;5.784;2022-10-22T12:22:18;101251.50;;;22.98;55.73
48848;BME280;36611;51.638;5.784;2022-10-22T12:24:52;101253.88;;;23.01;55.69
48848;BME280;36611;51.638;5.784;2022-10-22T12:27:32;101252.16;;;23.00;55.04
48848;BME280;36611;51.638;5.784;2022-10-22T12:30:00;101255.25;;;22.97;54.92
48848;BME280;36611;51.638;5.784;2022-10-22T12:32:35;101264.03;;;22.93;54.73
48848;BME280;36611;51.638;5.784;2022-10-22T12:35:10;101253.41;;;22.90;54.70
48848;BME280;36611;51.638;5.784;2022-10-22T12:37:40;101263.03;;;22.86;54.36
48848;BME280;36611;51.638;5.784;2022-10-22T12:40:33;101258.41;;;22.78;54.46
48848;BME280;36611;51.638;5.784;2022-10-22T12:43:11;101262.72;;;22.72;54.42
48848;BME280;36611;51.638;5.784;2022-10-22T12:45:42;101264.97;;;22.69;54.29
48848;BME280;36611;51.638;5.784;2022-10-22T12:48:20;101260.00;;;22.64;54.27
48848;BME280;36611;51.638;5.784;2022-10-22T12:50:50;101266.69;;;22.62;54.37
48848;BME280;36611;51.638;5.784;2022-10-22T12:53:26;101267.06;;;22.59;54.29
48848;BME280;36611;51.638;5.784;2022-10-22T12:56:03;101260.56;;;22.60;54.65
48848;BME280;36611;51.638;5.784;2022-10-22T12:59:26;101261.56;;;22.59;54.40
48848;BME280;36611;51.638;5.784;2022-10-22T13:01:33;101261.25;;;22.54;54.41
48848;BME280;36611;51.638;5.784;2022-10-22T13:06:43;101263.00;;;22.46;54.48
48848;BME280;36611;51.638;5.784;2022-10-22T13:09:22;101260.63;;;22.43;54.24
48848;BME280;36611;51.638;5.784;2022-10-22T13:12:03;101260.94;;;22.48;54.45
48848;BME280;36611;51.638;5.784;2022-10-22T13:14:35;101263.28;;;22.60;54.46
48848;BME280;36611;51.638;5.784;2022-10-22T13:17:06;101264.44;;;22.73;54.45
48848;BME280;36611;51.638;5.784;2022-10-22T13:22:34;101262.44;;;22.98;54.10
48848;BME280;36611;51.638;5.784;2022-10-22T13:27:43;101259.78;;;23.21;53.69
48848;BME280;36611;51.638;5.784;2022-10-22T13:30:23;101264.03;;;23.24;53.47
48848;BME280;36611;51.638;5.784;2022-10-22T13:33:03;101254.97;;;23.23;52.96
48848;BME280;36611;51.638;5.784;2022-10-22T13:35:33;101258.06;;;23.20;53.12
48848;BME280;36611;51.638;5.784;2022-10-22T13:38:01;101255.50;;;23.19;52.84
48848;BME280;36611;51.638;5.784;2022-10-22T13:40:27;101256.19;;;23.21;52.83
48848;BME280;36611;51.638;5.784;2022-10-22T13:42:54;101252.72;;;23.27;53.00
48848;BME280;36611;51.638;5.784;2022-10-22T13:45:23;101253.19;;;23.30;52.89
48848;BME280;36611;51.638;5.784;2022-10-22T13:47:52;101252.84;;;23.33;52.60
48848;BME280;36611;51.638;5.784;2022-10-22T13:50:20;101260.31;;;23.39;52.37
48848;BME280;36611;51.638;5.784;2022-10-22T13:52:52;101254.09;;;23.45;52.17
48848;BME280;36611;51.638;5.784;2022-10-22T13:55:26;101265.00;;;23.54;52.41
48848;BME280;36611;51.638;5.784;2022-10-22T13:58:05;101258.81;;;23.60;52.40
48848;BME280;36611;51.638;5.784;2022-10-22T14:00:37;101252.41;;;23.67;52.17
48848;BME280;36611;51.638;5.784;2022-10-22T14:03:04;101253.38;;;23.74;52.23
48848;BME280;36611;51.638;5.784;2022-10-22T14:05:30;101250.78;;;23.81;52.03
48848;BME280;36611;51.638;5.784;2022-10-22T14:07:59;101260.53;;;23.84;51.98
48848;BME280;36611;51.638;5.784;2022-10-22T14:10:25;101254.50;;;23.88;51.93
48848;BME280;36611;51.638;5.784;2022-10-22T14:12:52;101256.66;;;23.93;52.05
48848;BME280;36611;51.638;5.784;2022-10-22T14:15:22;101251.84;;;23.95;51.51
48848;BME280;36611;51.638;5.784;2022-10-22T14:17:52;101258.84;;;23.97;51.62
48848;BME280;36611;51.638;5.784;2022-10-22T14:20:22;101251.66;;;23.96;51.71
48848;BME280;36611;51.638;5.784;2022-10-22T14:22:50;101252.88;;;23.94;51.62
48848;BME280;36611;51.638;5.784;2022-10-22T14:25:23;101248.34;;;23.86;51.34
48848;BME280;36611;51.638;5.784;2022-10-22T14:27:50;101249.25;;;23.79;51.33
48848;BME280;36611;51.638;5.784;2022-10-22T14:30:22;101257.53;;;23.70;51.25
48848;BME280;36611;51.638;5.784;2022-10-22T14:32:49;101264.78;;;23.63;51.17
48848;BME280;36611;51.638;5.784;2022-10-22T14:35:21;101264.34;;;23.52;51.08
48848;BME280;36611;51.638;5.784;2022-10-22T14:37:48;101259.09;;;23.42;51.00
48848;BME280;36611;51.638;5.784;2022-10-22T14:40:17;101260.19;;;23.33;50.96
48848;BME280;36611;51.638;5.784;2022-10-22T14:42:46;101261.13;;;23.25;50.96
48848;BME280;36611;51.638;5.784;2022-10-22T14:45:24;101270.91;;;23.20;51.14
48848;BME280;36611;51.638;5.784;2022-10-22T14:47:51;101279.66;;;23.15;51.22
48848;BME280;36611;51.638;5.784;2022-10-22T14:50:20;101278.50;;;23.09;51.39
48848;BME280;36611;51.638;5.784;2022-10-22T14:52:47;101281.09;;;23.03;51.46
48848;BME280;36611;51.638;5.784;2022-10-22T14:55:18;101279.56;;;23.00;51.62
48848;BME280;36611;51.638;5.784;2022-10-22T14:57:45;101280.09;;;22.96;51.72
48848;BME280;36611;51.638;5.784;2022-10-22T15:00:14;101283.56;;;22.90;51.54
48848;BME280;36611;51.638;5.784;2022-10-22T15:02:42;101283.91;;;22.87;51.52